sensor_id;sensor_type;location;lat;lon;timestamp;temperature;humidity
67557;DHT22;54387;53.526;49.300;2022-08-21T00:00:39;16.70;51.30
67557;DHT22;54387;53.526;49.300;2022-08-21T00:03:11;16.70;51.30
67557;DHT22;54387;53.526;49.300;2022-08-21T00:05:49;16.70;51.50
67557;DHT22;54387;53.526;49.300;2022-08-21T00:08:21;16.70;51.50
67557;DHT22;54387;53.526;49.300;2022-08-21T00:10:52;16.70;51.50
67557;DHT22;54387;53.526;49.300;2022-08-21T00:13:24;16.70;51.50
67557;DHT22;54387;53.526;49.300;2022-08-21T00:15:56;16.60;51.30
67557;DHT22;54387;53.526;49.300;2022-08-21T00:18:28;16.70;51.30
67557;DHT22;54387;53.526;49.300;2022-08-21T00:20:59;16.60;51.20
67557;DHT22;54387;53.526;49.300;2022-08-21T00:23:33;16.60;51.20
67557;DHT22;54387;53.526;49.300;2022-08-21T00:26:05;16.70;51.30
67557;DHT22;54387;53.526;49.300;2022-08-21T00:28:37;16.60;51.20
67557;DHT22;54387;53.526;49.300;2022-08-21T00:31:09;16.60;51.20
67557;DHT22;54387;53.526;49.300;2022-08-21T00:33:42;16.60;52.20
67557;DHT22;54387;53.526;49.300;2022-08-21T00:36:15;16.60;51.20
67557;DHT22;54387;53.526;49.300;2022-08-21T00:38:46;16.60;51.20
67557;DHT22;54387;53.526;49.300;2022-08-21T00:41:18;16.60;51.20
67557;DHT22;54387;53.526;49.300;2022-08-21T00:43:50;16.60;51.20
67557;DHT22;54387;53.526;49.300;2022-08-21T00:46:22;16.60;51.20
67557;DHT22;54387;53.526;49.300;2022-08-21T00:48:54;16.60;51.50
67557;DHT22;54387;53.526;49.300;2022-08-21T00:51:38;16.60;51.70
67557;DHT22;54387;53.526;49.300;2022-08-21T00:54:11;16.50;51.80
67557;DHT22;54387;53.526;49.300;2022-08-21T00:56:43;16.50;51.80
67557;DHT22;54387;53.526;49.300;2022-08-21T00:59:17;16.40;51.70
67557;DHT22;54387;53.526;49.300;2022-08-21T01:01:49;16.40;51.90
67557;DHT22;54387;53.526;49.300;2022-08-21T01:04:22;16.40;52.00
67557;DHT22;54387;53.526;49.300;2022-08-21T01:06:54;16.30;52.10
67557;DHT22;54387;53.526;49.300;2022-08-21T01:09:26;16.30;52.40
67557;DHT22;54387;53.526;49.300;2022-08-21T01:11:57;16.20;52.40
67557;DHT22;54387;53.526;49.300;2022-08-21T01:14:30;16.20;52.70
67557;DHT22;54387;53.526;49.300;2022-08-21T01:17:03;16.20;53.00
67557;DHT22;54387;53.526;49.300;2022-08-21T01:19:35;16.10;53.10
67557;DHT22;54387;53.526;49.300;2022-08-21T01:22:07;16.10;53.20
67557;DHT22;54387;53.526;49.300;2022-08-21T01:24:39;16.00;53.30
67557;DHT22;54387;53.526;49.300;2022-08-21T01:27:10;15.90;53.30
67557;DHT22;54387;53.526;49.300;2022-08-21T01:29:53;16.00;53.60
67557;DHT22;54387;53.526;49.300;2022-08-21T01:32:25;15.90;53.80
67557;DHT22;54387;53.526;49.300;2022-08-21T01:34:56;15.80;53.80
67557;DHT22;54387;53.526;49.300;2022-08-21T01:37:28;15.80;54.00
67557;DHT22;54387;53.526;49.300;2022-08-21T01:39:59;15.80;54.10
67557;DHT22;54387;53.526;49.300;2022-08-21T01:42:31;15.80;54.30
67557;DHT22;54387;53.526;49.300;2022-08-21T01:45:04;15.70;54.40
67557;DHT22;54387;53.526;49.300;2022-08-21T01:47:37;15.70;54.50
67557;DHT22;54387;53.526;49.300;2022-08-21T01:50:13;15.70;54.50
67557;DHT22;54387;53.526;49.300;2022-08-21T01:52:46;15.70;54.60
67557;DHT22;54387;53.526;49.300;2022-08-21T01:55:19;15.70;54.60
67557;DHT22;54387;53.526;49.300;2022-08-21T01:57:50;15.60;54.70
67557;DHT22;54387;53.526;49.300;2022-08-21T02:00:23;15.60;54.90
67557;DHT22;54387;53.526;49.300;2022-08-21T02:02:54;15.60;54.90
67557;DHT22;54387;53.526;49.300;2022-08-21T02:05:26;15.60;55.10
67557;DHT22;54387;53.526;49.300;2022-08-21T02:07:58;15.60;55.20
67557;DHT22;54387;53.526;49.300;2022-08-21T02:10:31;15.50;55.30
67557;DHT22;54387;53.526;49.300;2022-08-21T02:13:03;15.50;55.50
67557;DHT22;54387;53.526;49.300;2022-08-21T02:15:35;15.50;55.50
67557;DHT22;54387;53.526;49.300;2022-08-21T02:18:07;15.50;55.60
67557;DHT22;54387;53.526;49.300;2022-08-21T02:20:46;15.60;55.80
67557;DHT22;54387;53.526;49.300;2022-08-21T02:23:17;15.60;55.90
67557;DHT22;54387;53.526;49.300;2022-08-21T02:25:48;15.60;55.90
67557;DHT22;54387;53.526;49.300;2022-08-21T02:28:20;15.60;56.00
67557;DHT22;54387;53.526;49.300;2022-08-21T02:30:53;15.60;56.00
67557;DHT22;54387;53.526;49.300;2022-08-21T02:33:25;15.60;56.10
67557;DHT22;54387;53.526;49.300;2022-08-21T02:35:57;15.70;56.20
67557;DHT22;54387;53.526;49.300;2022-08-21T02:38:32;15.70;56.20
67557;DHT22;54387;53.526;49.300;2022-08-21T02:41:11;15.70;56.10
67557;DHT22;54387;53.526;49.300;2022-08-21T02:43:43;15.80;56.10
67557;DHT22;54387;53.526;49.300;2022-08-21T02:46:16;15.80;55.80
67557;DHT22;54387;53.526;49.300;2022-08-21T02:48:49;15.80;55.60
67557;DHT22;54387;53.526;49.300;2022-08-21T02:51:20;15.80;55.40
67557;DHT22;54387;53.526;49.300;2022-08-21T02:53:53;15.80;55.30
67557;DHT22;54387;53.526;49.300;2022-08-21T02:56:25;15.80;55.40
67557;DHT22;54387;53.526;49.300;2022-08-21T02:58:57;15.80;55.40
67557;DHT22;54387;53.526;49.300;2022-08-21T03:01:28;15.80;55.50
67557;DHT22;54387;53.526;49.300;2022-08-21T03:03:59;15.80;55.50
67557;DHT22;54387;53.526;49.300;2022-08-21T03:06:31;15.90;55.60
67557;DHT22;54387;53.526;49.300;2022-08-21T03:09:03;15.90;55.50
67557;DHT22;54387;53.526;49.300;2022-08-21T03:11:34;15.90;55.60
67557;DHT22;54387;53.526;49.300;2022-08-21T03:14:07;16.00;55.40
67557;DHT22;54387;53.526;49.300;2022-08-21T03:16:39;16.10;55.30
67557;DHT22;54387;53.526;49.300;2022-08-21T03:19:10;16.10;55.10
67557;DHT22;54387;53.526;49.300;2022-08-21T03:21:42;16.20;55.00
67557;DHT22;54387;53.526;49.300;2022-08-21T03:24:13;16.30;54.80
67557;DHT22;54387;53.526;49.300;2022-08-21T03:26:45;16.40;54.70
67557;DHT22;54387;53.526;49.300;2022-08-21T03:29:16;16.40;54.70
67557;DHT22;54387;53.526;49.300;2022-08-21T03:31:47;16.50;54.70
67557;DHT22;54387;53.526;49.300;2022-08-21T03:34:19;16.60;54.70
67557;DHT22;54387;53.526;49.300;2022-08-21T03:36:51;16.70;54.70
67557;DHT22;54387;53.526;49.300;2022-08-21T03:39:22;16.80;54.60
67557;DHT22;54387;53.526;49.300;2022-08-21T03:41:54;16.80;54.40
67557;DHT22;54387;53.526;49.300;2022-08-21T03:44:26;16.90;54.30
67557;DHT22;54387;53.526;49.300;2022-08-21T03:46:59;17.00;54.30
67557;DHT22;54387;53.526;49.300;2022-08-21T03:49:30;17.10;54.20
67557;DHT22;54387;53.526;49.300;2022-08-21T03:52:04;17.10;54.10
67557;DHT22;54387;53.526;49.300;2022-08-21T03:54:36;17.20;54.10
67557;DHT22;54387;53.526;49.300;2022-08-21T03:57:07;17.30;54.00
67557;DHT22;54387;53.526;49.300;2022-08-21T03:59:40;17.40;53.80
67557;DHT22;54387;53.526;49.300;2022-08-21T04:02:13;17.50;53.60
67557;DHT22;54387;53.526;49.300;2022-08-21T04:04:48;17.60;53.50
67557;DHT22;54387;53.526;49.300;2022-08-21T04:07:19;17.70;53.30
67557;DHT22;54387;53.526;49.300;2022-08-21T04:09:50;17.80;53.20
67557;DHT22;54387;53.526;49.300;2022-08-21T04:12:22;17.90;53.00
67557;DHT22;54387;53.526;49.300;2022-08-21T04:14:54;18.10;53.00
67557;DHT22;54387;53.526;49.300;2022-08-21T04:17:26;18.10;52.80
67557;DHT22;54387;53.526;49.300;2022-08-21T04:19:57;18.20;52.60
67557;DHT22;54387;53.526;49.300;2022-08-21T04:22:29;18.30;52.50
67557;DHT22;54387;53.526;49.300;2022-08-21T04:25:01;18.50;52.60
67557;DHT22;54387;53.526;49.300;2022-08-21T04:27:33;18.50;52.30
67557;DHT22;54387;53.526;49.300;2022-08-21T04:30:05;18.60;52.20
67557;DHT22;54387;53.526;49.300;2022-08-21T04:32:38;18.80;52.30
67557;DHT22;54387;53.526;49.300;2022-08-21T04:35:10;18.90;52.10
67557;DHT22;54387;53.526;49.300;2022-08-21T04:37:42;19.00;52.00
67557;DHT22;54387;53.526;49.300;2022-08-21T04:40:16;19.10;51.90
67557;DHT22;54387;53.526;49.300;2022-08-21T04:42:54;19.20;51.80
67557;DHT22;54387;53.526;49.300;2022-08-21T04:45:33;19.30;51.50
67557;DHT22;54387;53.526;49.300;2022-08-21T04:48:07;19.50;51.20
67557;DHT22;54387;53.526;49.300;2022-08-21T04:53:30;19.70;51.00
67557;DHT22;54387;53.526;49.300;2022-08-21T04:56:08;19.80;50.70
67557;DHT22;54387;53.526;49.300;2022-08-21T04:58:42;19.90;50.60
67557;DHT22;54387;53.526;49.300;2022-08-21T05:01:17;20.00;50.30
67557;DHT22;54387;53.526;49.300;2022-08-21T05:03:51;20.10;50.30
67557;DHT22;54387;53.526;49.300;2022-08-21T05:06:23;20.20;50.10
67557;DHT22;54387;53.526;49.300;2022-08-21T05:08:56;20.30;49.80
67557;DHT22;54387;53.526;49.300;2022-08-21T05:11:30;20.50;49.60
67557;DHT22;54387;53.526;49.300;2022-08-21T05:14:02;20.60;49.40
67557;DHT22;54387;53.526;49.300;2022-08-21T05:16:34;20.70;49.10
67557;DHT22;54387;53.526;49.300;2022-08-21T05:19:08;20.80;48.90
67557;DHT22;54387;53.526;49.300;2022-08-21T05:21:44;20.80;48.70
67557;DHT22;54387;53.526;49.300;2022-08-21T05:24:16;20.90;48.70
67557;DHT22;54387;53.526;49.300;2022-08-21T05:26:48;21.00;48.60
67557;DHT22;54387;53.526;49.300;2022-08-21T05:29:20;21.10;48.40
67557;DHT22;54387;53.526;49.300;2022-08-21T05:31:52;21.20;48.40
67557;DHT22;54387;53.526;49.300;2022-08-21T05:34:24;21.30;48.40
67557;DHT22;54387;53.526;49.300;2022-08-21T05:36:55;21.40;48.00
67557;DHT22;54387;53.526;49.300;2022-08-21T05:39:27;21.60;48.00
67557;DHT22;54387;53.526;49.300;2022-08-21T05:41:58;21.70;47.90
67557;DHT22;54387;53.526;49.300;2022-08-21T05:44:29;21.80;47.70
67557;DHT22;54387;53.526;49.300;2022-08-21T05:47:06;21.90;47.50
67557;DHT22;54387;53.526;49.300;2022-08-21T05:49:38;22.00;47.30
67557;DHT22;54387;53.526;49.300;2022-08-21T05:52:09;22.10;47.20
67557;DHT22;54387;53.526;49.300;2022-08-21T05:54:42;22.30;46.70
67557;DHT22;54387;53.526;49.300;2022-08-21T05:57:13;22.40;46.60
67557;DHT22;54387;53.526;49.300;2022-08-21T05:59:44;22.50;46.30
67557;DHT22;54387;53.526;49.300;2022-08-21T06:02:20;22.60;45.80
67557;DHT22;54387;53.526;49.300;2022-08-21T06:04:51;22.70;45.70
67557;DHT22;54387;53.526;49.300;2022-08-21T06:07:23;22.80;45.70
67557;DHT22;54387;53.526;49.300;2022-08-21T06:09:54;22.90;45.40
67557;DHT22;54387;53.526;49.300;2022-08-21T06:12:27;23.00;45.50
67557;DHT22;54387;53.526;49.300;2022-08-21T06:14:58;23.10;45.50
67557;DHT22;54387;53.526;49.300;2022-08-21T06:17:30;23.20;45.20
67557;DHT22;54387;53.526;49.300;2022-08-21T06:20:03;23.40;44.90
67557;DHT22;54387;53.526;49.300;2022-08-21T06:22:35;23.50;44.60
67557;DHT22;54387;53.526;49.300;2022-08-21T06:25:07;23.60;44.20
67557;DHT22;54387;53.526;49.300;2022-08-21T06:27:40;23.70;43.80
67557;DHT22;54387;53.526;49.300;2022-08-21T06:30:11;23.80;43.70
67557;DHT22;54387;53.526;49.300;2022-08-21T06:32:43;23.90;43.30
67557;DHT22;54387;53.526;49.300;2022-08-21T06:35:14;24.00;43.20
67557;DHT22;54387;53.526;49.300;2022-08-21T06:37:46;24.10;42.90
67557;DHT22;54387;53.526;49.300;2022-08-21T06:40:17;24.20;42.90
67557;DHT22;54387;53.526;49.300;2022-08-21T06:42:49;24.20;42.60
67557;DHT22;54387;53.526;49.300;2022-08-21T06:45:21;24.30;42.60
67557;DHT22;54387;53.526;49.300;2022-08-21T06:47:52;24.40;42.40
67557;DHT22;54387;53.526;49.300;2022-08-21T06:50:24;24.60;41.70
67557;DHT22;54387;53.526;49.300;2022-08-21T06:53:00;24.70;41.50
67557;DHT22;54387;53.526;49.300;2022-08-21T06:55:33;24.80;41.20
67557;DHT22;54387;53.526;49.300;2022-08-21T06:58:05;24.90;41.20
67557;DHT22;54387;53.526;49.300;2022-08-21T07:00:41;25.00;41.10
67557;DHT22;54387;53.526;49.300;2022-08-21T07:03:36;25.20;40.50
67557;DHT22;54387;53.526;49.300;2022-08-21T07:06:09;25.30;39.70
67557;DHT22;54387;53.526;49.300;2022-08-21T07:08:41;25.40;39.20
67557;DHT22;54387;53.526;49.300;2022-08-21T07:11:21;25.50;38.90
67557;DHT22;54387;53.526;49.300;2022-08-21T07:13:53;25.60;38.70
67557;DHT22;54387;53.526;49.300;2022-08-21T07:16:26;25.70;38.20
67557;DHT22;54387;53.526;49.300;2022-08-21T07:18:57;25.80;38.40
67557;DHT22;54387;53.526;49.300;2022-08-21T07:21:28;25.80;38.20
67557;DHT22;54387;53.526;49.300;2022-08-21T07:24:00;26.00;37.90
67557;DHT22;54387;53.526;49.300;2022-08-21T07:26:31;26.00;37.40
67557;DHT22;54387;53.526;49.300;2022-08-21T07:29:04;26.10;37.40
67557;DHT22;54387;53.526;49.300;2022-08-21T07:31:35;26.20;37.20
67557;DHT22;54387;53.526;49.300;2022-08-21T07:34:07;26.30;37.00
67557;DHT22;54387;53.526;49.300;2022-08-21T07:36:39;26.40;36.90
67557;DHT22;54387;53.526;49.300;2022-08-21T07:39:10;26.40;36.70
67557;DHT22;54387;53.526;49.300;2022-08-21T07:41:42;26.50;36.50
67557;DHT22;54387;53.526;49.300;2022-08-21T07:44:13;26.60;36.50
67557;DHT22;54387;53.526;49.300;2022-08-21T07:46:45;26.70;36.30
67557;DHT22;54387;53.526;49.300;2022-08-21T07:49:16;26.80;35.70
67557;DHT22;54387;53.526;49.300;2022-08-21T07:51:47;26.80;35.50
67557;DHT22;54387;53.526;49.300;2022-08-21T07:54:19;26.90;35.20
67557;DHT22;54387;53.526;49.300;2022-08-21T07:56:50;26.90;34.50
67557;DHT22;54387;53.526;49.300;2022-08-21T07:59:22;27.00;34.60
67557;DHT22;54387;53.526;49.300;2022-08-21T08:01:53;27.20;34.70
67557;DHT22;54387;53.526;49.300;2022-08-21T08:04:25;27.20;34.60
67557;DHT22;54387;53.526;49.300;2022-08-21T08:06:56;27.30;34.10
67557;DHT22;54387;53.526;49.300;2022-08-21T08:09:28;27.40;34.00
67557;DHT22;54387;53.526;49.300;2022-08-21T08:11:59;27.50;34.00
67557;DHT22;54387;53.526;49.300;2022-08-21T08:14:31;27.50;33.60
67557;DHT22;54387;53.526;49.300;2022-08-21T08:17:02;27.60;33.70
67557;DHT22;54387;53.526;49.300;2022-08-21T08:19:34;27.60;33.30
67557;DHT22;54387;53.526;49.300;2022-08-21T08:22:16;27.70;33.40
67557;DHT22;54387;53.526;49.300;2022-08-21T08:24:51;27.70;33.30
67557;DHT22;54387;53.526;49.300;2022-08-21T08:27:23;27.70;33.30
67557;DHT22;54387;53.526;49.300;2022-08-21T08:29:54;27.80;33.60
67557;DHT22;54387;53.526;49.300;2022-08-21T08:32:26;27.90;33.50
67557;DHT22;54387;53.526;49.300;2022-08-21T08:34:58;28.00;33.30
67557;DHT22;54387;53.526;49.300;2022-08-21T08:37:29;28.00;33.90
67557;DHT22;54387;53.526;49.300;2022-08-21T08:40:01;28.00;33.10
67557;DHT22;54387;53.526;49.300;2022-08-21T08:42:35;28.10;32.60
67557;DHT22;54387;53.526;49.300;2022-08-21T08:45:11;28.10;32.20
67557;DHT22;54387;53.526;49.300;2022-08-21T08:47:53;28.20;32.50
67557;DHT22;54387;53.526;49.300;2022-08-21T08:50:44;28.30;32.10
67557;DHT22;54387;53.526;49.300;2022-08-21T08:53:27;28.30;32.00
67557;DHT22;54387;53.526;49.300;2022-08-21T08:56:01;28.40;32.40
67557;DHT22;54387;53.526;49.300;2022-08-21T08:58:37;28.40;32.10
67557;DHT22;54387;53.526;49.300;2022-08-21T09:01:16;28.50;31.90
67557;DHT22;54387;53.526;49.300;2022-08-21T09:03:49;28.60;31.60
67557;DHT22;54387;53.526;49.300;2022-08-21T09:12:05;28.70;30.80
67557;DHT22;54387;53.526;49.300;2022-08-21T09:15:00;28.80;30.70
67557;DHT22;54387;53.526;49.300;2022-08-21T09:17:53;28.90;30.70
67557;DHT22;54387;53.526;49.300;2022-08-21T09:20:41;29.10;30.70
67557;DHT22;54387;53.526;49.300;2022-08-21T09:23:30;29.30;30.40
67557;DHT22;54387;53.526;49.300;2022-08-21T09:26:18;29.80;30.30
67557;DHT22;54387;53.526;49.300;2022-08-21T09:28:56;30.50;29.70
67557;DHT22;54387;53.526;49.300;2022-08-21T09:31:36;31.50;28.90
67557;DHT22;54387;53.526;49.300;2022-08-21T09:34:11;32.80;28.20
67557;DHT22;54387;53.526;49.300;2022-08-21T09:36:47;34.20;27.10
67557;DHT22;54387;53.526;49.300;2022-08-21T09:39:25;35.90;25.90
67557;DHT22;54387;53.526;49.300;2022-08-21T09:41:59;37.90;24.50
67557;DHT22;54387;53.526;49.300;2022-08-21T09:44:34;39.90;23.40
67557;DHT22;54387;53.526;49.300;2022-08-21T09:47:11;41.70;22.30
67557;DHT22;54387;53.526;49.300;2022-08-21T09:49:46;43.30;21.20
67557;DHT22;54387;53.526;49.300;2022-08-21T09:52:22;44.50;20.40
67557;DHT22;54387;53.526;49.300;2022-08-21T09:54:56;45.60;19.80
67557;DHT22;54387;53.526;49.300;2022-08-21T09:57:30;46.20;19.20
67557;DHT22;54387;53.526;49.300;2022-08-21T10:00:30;46.90;18.90
67557;DHT22;54387;53.526;49.300;2022-08-21T10:05:49;49.40;18.10
67557;DHT22;54387;53.526;49.300;2022-08-21T10:08:23;50.60;17.90
67557;DHT22;54387;53.526;49.300;2022-08-21T10:11:11;51.60;17.40
67557;DHT22;54387;53.526;49.300;2022-08-21T10:19:26;53.80;16.60
67557;DHT22;54387;53.526;49.300;2022-08-21T10:25:20;54.50;16.30
67557;DHT22;54387;53.526;49.300;2022-08-21T10:33:21;55.20;16.00
67557;DHT22;54387;53.526;49.300;2022-08-21T10:36:06;55.60;15.90
67557;DHT22;54387;53.526;49.300;2022-08-21T10:47:56;56.30;15.70
67557;DHT22;54387;53.526;49.300;2022-08-21T10:56:01;55.60;16.10
67557;DHT22;54387;53.526;49.300;2022-08-21T10:58:44;55.40;15.80
67557;DHT22;54387;53.526;49.300;2022-08-21T11:04:53;55.80;15.80
67557;DHT22;54387;53.526;49.300;2022-08-21T11:07:30;55.80;15.70
67557;DHT22;54387;53.526;49.300;2022-08-21T11:10:14;55.30;15.70
67557;DHT22;54387;53.526;49.300;2022-08-21T11:12:52;55.00;15.60
67557;DHT22;54387;53.526;49.300;2022-08-21T11:15:36;54.80;15.60
67557;DHT22;54387;53.526;49.300;2022-08-21T11:23:53;55.40;15.50
67557;DHT22;54387;53.526;49.300;2022-08-21T11:26:33;54.20;15.60
67557;DHT22;54387;53.526;49.300;2022-08-21T11:29:15;51.70;16.00
67557;DHT22;54387;53.526;49.300;2022-08-21T11:32:19;49.20;16.60
67557;DHT22;54387;53.526;49.300;2022-08-21T11:35:12;46.80;17.20
67557;DHT22;54387;53.526;49.300;2022-08-21T11:38:06;44.40;18.00
67557;DHT22;54387;53.526;49.300;2022-08-21T11:46:08;39.60;19.70
67557;DHT22;54387;53.526;49.300;2022-08-21T11:51:38;37.70;20.80
67557;DHT22;54387;53.526;49.300;2022-08-21T12:02:28;35.90;21.60
67557;DHT22;54387;53.526;49.300;2022-08-21T12:05:21;35.70;21.90
67557;DHT22;54387;53.526;49.300;2022-08-21T12:08:07;35.80;22.00
67557;DHT22;54387;53.526;49.300;2022-08-21T12:11:00;35.60;22.10
67557;DHT22;54387;53.526;49.300;2022-08-21T12:13:37;35.30;22.30
67557;DHT22;54387;53.526;49.300;2022-08-21T12:16:15;35.00;22.70
67557;DHT22;54387;53.526;49.300;2022-08-21T12:18:46;34.60;23.00
67557;DHT22;54387;53.526;49.300;2022-08-21T12:21:26;34.40;23.40
67557;DHT22;54387;53.526;49.300;2022-08-21T12:26:50;34.30;23.30
67557;DHT22;54387;53.526;49.300;2022-08-21T12:29:24;34.40;23.20
67557;DHT22;54387;53.526;49.300;2022-08-21T12:32:00;34.30;23.00
67557;DHT22;54387;53.526;49.300;2022-08-21T12:34:38;34.30;23.30
67557;DHT22;54387;53.526;49.300;2022-08-21T12:40:31;34.30;23.00
67557;DHT22;54387;53.526;49.300;2022-08-21T12:43:14;34.60;23.00
67557;DHT22;54387;53.526;49.300;2022-08-21T12:45:49;35.00;23.00
67557;DHT22;54387;53.526;49.300;2022-08-21T12:48:26;35.50;22.80
67557;DHT22;54387;53.526;49.300;2022-08-21T12:51:18;35.90;22.40
67557;DHT22;54387;53.526;49.300;2022-08-21T12:53:55;36.10;22.10
67557;DHT22;54387;53.526;49.300;2022-08-21T12:56:30;36.30;22.10
67557;DHT22;54387;53.526;49.300;2022-08-21T12:59:10;37.00;21.60
67557;DHT22;54387;53.526;49.300;2022-08-21T13:01:48;38.40;21.00
67557;DHT22;54387;53.526;49.300;2022-08-21T13:04:47;40.10;20.40
67557;DHT22;54387;53.526;49.300;2022-08-21T13:07:27;41.90;19.60
67557;DHT22;54387;53.526;49.300;2022-08-21T13:10:02;43.30;19.40
67557;DHT22;54387;53.526;49.300;2022-08-21T13:12:35;44.30;19.30
67557;DHT22;54387;53.526;49.300;2022-08-21T13:15:07;44.90;19.30
67557;DHT22;54387;53.526;49.300;2022-08-21T13:17:47;44.30;19.00
67557;DHT22;54387;53.526;49.300;2022-08-21T13:20:25;43.20;18.50
67557;DHT22;54387;53.526;49.300;2022-08-21T13:23:02;43.00;18.40
67557;DHT22;54387;53.526;49.300;2022-08-21T13:25:36;43.20;18.00
67557;DHT22;54387;53.526;49.300;2022-08-21T13:28:11;43.50;17.40
67557;DHT22;54387;53.526;49.300;2022-08-21T13:30:48;43.50;17.50
67557;DHT22;54387;53.526;49.300;2022-08-21T13:33:24;43.40;18.30
67557;DHT22;54387;53.526;49.300;2022-08-21T13:36:02;42.90;17.60
67557;DHT22;54387;53.526;49.300;2022-08-21T13:38:37;42.20;17.70
67557;DHT22;54387;53.526;49.300;2022-08-21T13:41:41;41.30;18.00
67557;DHT22;54387;53.526;49.300;2022-08-21T13:44:18;40.70;18.30
67557;DHT22;54387;53.526;49.300;2022-08-21T13:46:50;40.20;18.40
67557;DHT22;54387;53.526;49.300;2022-08-21T13:49:29;39.70;18.70
67557;DHT22;54387;53.526;49.300;2022-08-21T13:52:01;38.90;18.90
67557;DHT22;54387;53.526;49.300;2022-08-21T13:54:38;38.40;19.30
67557;DHT22;54387;53.526;49.300;2022-08-21T13:57:30;37.80;19.50
67557;DHT22;54387;53.526;49.300;2022-08-21T14:00:19;37.40;19.80
67557;DHT22;54387;53.526;49.300;2022-08-21T14:02:52;37.40;19.90
67557;DHT22;54387;53.526;49.300;2022-08-21T14:05:29;37.30;19.90
67557;DHT22;54387;53.526;49.300;2022-08-21T14:08:10;37.20;20.30
67557;DHT22;54387;53.526;49.300;2022-08-21T14:10:48;37.10;20.00
67557;DHT22;54387;53.526;49.300;2022-08-21T14:14:04;37.20;20.20
67557;DHT22;54387;53.526;49.300;2022-08-21T14:16:28;37.30;20.10
67557;DHT22;54387;53.526;49.300;2022-08-21T14:21:37;36.60;20.50
67557;DHT22;54387;53.526;49.300;2022-08-21T14:26:57;35.60;21.10
67557;DHT22;54387;53.526;49.300;2022-08-21T14:29:38;35.20;21.10
67557;DHT22;54387;53.526;49.300;2022-08-21T14:32:37;34.80;21.40
67557;DHT22;54387;53.526;49.300;2022-08-21T14:35:09;34.50;21.80
67557;DHT22;54387;53.526;49.300;2022-08-21T14:37:44;34.30;22.00
67557;DHT22;54387;53.526;49.300;2022-08-21T14:40:18;34.40;22.20
67557;DHT22;54387;53.526;49.300;2022-08-21T14:42:50;34.50;22.20
67557;DHT22;54387;53.526;49.300;2022-08-21T14:45:29;34.50;22.10
67557;DHT22;54387;53.526;49.300;2022-08-21T14:48:02;34.50;22.20
67557;DHT22;54387;53.526;49.300;2022-08-21T14:50:33;34.20;22.50
67557;DHT22;54387;53.526;49.300;2022-08-21T14:53:05;33.90;22.70
67557;DHT22;54387;53.526;49.300;2022-08-21T14:55:38;33.70;22.60
67557;DHT22;54387;53.526;49.300;2022-08-21T14:58:28;33.50;22.50
67557;DHT22;54387;53.526;49.300;2022-08-21T15:01:01;33.10;22.60
67557;DHT22;54387;53.526;49.300;2022-08-21T15:03:35;32.70;23.10
67557;DHT22;54387;53.526;49.300;2022-08-21T15:06:08;32.20;23.60
67557;DHT22;54387;53.526;49.300;2022-08-21T15:08:40;31.70;23.80
67557;DHT22;54387;53.526;49.300;2022-08-21T15:11:15;31.30;24.00
67557;DHT22;54387;53.526;49.300;2022-08-21T15:13:53;30.90;24.40
67557;DHT22;54387;53.526;49.300;2022-08-21T15:16:27;30.50;24.60
67557;DHT22;54387;53.526;49.300;2022-08-21T15:18:59;30.20;25.00
67557;DHT22;54387;53.526;49.300;2022-08-21T15:21:31;29.90;25.30
67557;DHT22;54387;53.526;49.300;2022-08-21T15:24:03;29.60;25.80
67557;DHT22;54387;53.526;49.300;2022-08-21T15:26:35;29.30;26.20
67557;DHT22;54387;53.526;49.300;2022-08-21T15:29:08;29.10;26.60
67557;DHT22;54387;53.526;49.300;2022-08-21T15:31:52;28.80;26.90
67557;DHT22;54387;53.526;49.300;2022-08-21T15:34:27;28.50;27.00
67557;DHT22;54387;53.526;49.300;2022-08-21T15:36:59;28.30;27.30
67557;DHT22;54387;53.526;49.300;2022-08-21T15:39:30;28.10;27.70
67557;DHT22;54387;53.526;49.300;2022-08-21T15:42:02;27.90;28.00
67557;DHT22;54387;53.526;49.300;2022-08-21T15:44:34;27.80;28.30
67557;DHT22;54387;53.526;49.300;2022-08-21T15:47:07;27.60;28.40
67557;DHT22;54387;53.526;49.300;2022-08-21T15:49:42;27.40;28.50
67557;DHT22;54387;53.526;49.300;2022-08-21T15:52:18;27.20;28.90
67557;DHT22;54387;53.526;49.300;2022-08-21T15:54:50;27.10;28.80
67557;DHT22;54387;53.526;49.300;2022-08-21T15:57:23;26.90;29.00
67557;DHT22;54387;53.526;49.300;2022-08-21T15:59:58;26.70;29.40
67557;DHT22;54387;53.526;49.300;2022-08-21T16:02:31;26.60;29.60
67557;DHT22;54387;53.526;49.300;2022-08-21T16:05:03;26.50;29.80
67557;DHT22;54387;53.526;49.300;2022-08-21T16:07:35;26.30;29.90
67557;DHT22;54387;53.526;49.300;2022-08-21T16:10:07;26.20;30.10
67557;DHT22;54387;53.526;49.300;2022-08-21T16:12:43;26.10;30.30
67557;DHT22;54387;53.526;49.300;2022-08-21T16:15:16;26.00;30.50
67557;DHT22;54387;53.526;49.300;2022-08-21T16:17:49;25.80;30.50
67557;DHT22;54387;53.526;49.300;2022-08-21T16:20:26;25.80;31.00
67557;DHT22;54387;53.526;49.300;2022-08-21T16:22:59;25.60;31.10
67557;DHT22;54387;53.526;49.300;2022-08-21T16:25:36;25.50;32.20
67557;DHT22;54387;53.526;49.300;2022-08-21T16:28:10;25.40;31.60
67557;DHT22;54387;53.526;49.300;2022-08-21T16:30:44;25.30;31.90
67557;DHT22;54387;53.526;49.300;2022-08-21T16:35:53;25.10;32.00
67557;DHT22;54387;53.526;49.300;2022-08-21T16:38:26;25.10;32.10
67557;DHT22;54387;53.526;49.300;2022-08-21T16:40:59;25.00;32.30
67557;DHT22;54387;53.526;49.300;2022-08-21T16:43:31;24.90;32.40
67557;DHT22;54387;53.526;49.300;2022-08-21T16:46:03;24.90;32.70
67557;DHT22;54387;53.526;49.300;2022-08-21T16:48:34;24.80;32.70
67557;DHT22;54387;53.526;49.300;2022-08-21T16:51:06;24.80;32.80
67557;DHT22;54387;53.526;49.300;2022-08-21T16:53:38;24.70;33.00
67557;DHT22;54387;53.526;49.300;2022-08-21T16:56:11;24.60;33.40
67557;DHT22;54387;53.526;49.300;2022-08-21T16:58:46;24.50;33.80
67557;DHT22;54387;53.526;49.300;2022-08-21T17:01:21;24.50;34.30
67557;DHT22;54387;53.526;49.300;2022-08-21T17:03:54;24.40;34.40
67557;DHT22;54387;53.526;49.300;2022-08-21T17:06:26;24.40;34.60
67557;DHT22;54387;53.526;49.300;2022-08-21T17:08:58;24.30;34.80
67557;DHT22;54387;53.526;49.300;2022-08-21T17:11:32;24.20;35.00
67557;DHT22;54387;53.526;49.300;2022-08-21T17:14:10;24.10;35.20
67557;DHT22;54387;53.526;49.300;2022-08-21T17:16:45;24.10;35.50
67557;DHT22;54387;53.526;49.300;2022-08-21T17:19:18;24.00;35.60
67557;DHT22;54387;53.526;49.300;2022-08-21T17:21:49;24.00;35.80